Time;durP1;ratioP1;P1;durP2;ratioP2;P2;SDS_P1;SDS_P2;PMS_P1;PMS_P2;Temp;Humidity;BMP_temperature;BMP_pressure;BME280_temperature;BME280_humidity;BME280_pressure;Samples;Min_cycle;Max_cycle;Signal;HPM_P1;HPM_P2
2022/04/28 00:00:28;;;;;;;;;;;;;;;25.86;7.63;101272.50;5074229;28;19923;-73
2022/04/28 00:02:53;;;;;;;;;;;;;;;25.86;7.30;101272.50;5074253;28;20428;-74
2022/04/28 00:05:19;;;;;;;;;;;;;;;25.86;7.56;101271.69;5074197;28;20396;-75
2022/04/28 00:07:44;;;;;;;;;;;;;;;25.86;7.68;101266.22;5056040;28;19981;-74
2022/04/28 00:10:09;;;;;;;;;;;;;;;25.87;7.54;101273.31;5073876;28;20205;-74
2022/04/28 00:12:35;;;;;;;;;;;;;;;25.89;7.67;101267.56;5074232;28;19948;-74
2022/04/28 00:15:01;;;;;;;;;;;;;;;25.86;7.53;101279.91;5073975;28;19920;-75
2022/04/28 00:17:26;;;;;;;;;;;;;;;25.85;7.38;101280.97;5074191;28;20322;-77
2022/04/28 00:19:51;;;;;;;;;;;;;;;25.84;7.53;101277.41;5074097;28;20341;-74
2022/04/28 00:22:17;;;;;;;;;;;;;;;25.83;7.42;101274.94;5074045;28;20405;-74
2022/04/28 00:24:42;;;;;;;;;;;;;;;25.85;7.46;101272.75;5087466;28;20274;-74
2022/04/28 00:27:08;;;;;;;;;;;;;;;25.84;7.63;101279.34;5094015;28;19926;-75
2022/04/28 00:29:34;;;;;;;;;;;;;;;25.88;7.55;101274.16;5093965;28;19959;-73
2022/04/28 00:32:00;;;;;;;;;;;;;;;25.85;7.31;101283.72;5093581;28;19927;-73
2022/04/28 00:34:25;;;;;;;;;;;;;;;25.86;7.48;101282.63;5094217;28;19916;-74
2022/04/28 00:36:50;;;;;;;;;;;;;;;25.83;7.35;101283.16;5094210;28;20385;-74
2022/04/28 00:39:16;;;;;;;;;;;;;;;25.83;7.61;101283.97;5093958;28;20251;-75
2022/04/28 00:41:41;;;;;;;;;;;;;;;25.81;7.48;101286.16;5094184;28;19916;-73
2022/04/28 00:44:10;;;;;;;;;;;;;;;25.83;7.58;101288.63;5093872;28;20307;-75
2022/04/28 00:46:36;;;;;;;;;;;;;;;25.82;7.57;101278.78;5094171;28;19916;-74
2022/04/28 00:51:45;;;;;;;;;;;;;;;25.83;7.42;101285.91;5093845;28;19989;-74
2022/04/28 00:54:10;;;;;;;;;;;;;;;25.82;7.53;101281.53;5094057;28;20358;-74
2022/04/28 00:56:36;;;;;;;;;;;;;;;25.81;7.56;101285.34;5094199;28;20339;-75
2022/04/28 00:59:02;;;;;;;;;;;;;;;25.78;7.31;101286.69;5075708;28;20006;-74
2022/04/28 01:01:27;;;;;;;;;;;;;;;25.83;7.43;101294.13;5075784;28;19972;-72
2022/04/28 01:03:54;;;;;;;;;;;;;;;25.79;7.51;101293.00;5094042;28;19920;-74
2022/04/28 01:06:19;;;;;;;;;;;;;;;25.79;7.38;101298.50;5093944;28;19924;-74
2022/04/28 01:08:46;;;;;;;;;;;;;;;25.80;7.28;101300.97;5094410;28;20469;-76
2022/04/28 01:11:11;;;;;;;;;;;;;;;25.80;7.13;101295.50;5093922;28;20456;-74
2022/04/28 01:13:36;;;;;;;;;;;;;;;25.79;7.43;101298.50;5094083;28;20033;-75
2022/04/28 01:16:01;;;;;;;;;;;;;;;25.80;7.34;101300.13;5094028;28;20271;-76
2022/04/28 01:18:27;;;;;;;;;;;;;;;25.79;7.02;101293.00;5093840;28;19967;-76
2022/04/28 01:20:52;;;;;;;;;;;;;;;25.77;7.18;101295.22;5093857;28;19916;-74
2022/04/28 01:23:20;;;;;;;;;;;;;;;25.78;7.19;101292.16;5093138;28;20295;-74
2022/04/28 01:25:45;;;;;;;;;;;;;;;25.78;7.36;101303.13;5093345;28;19923;-73
2022/04/28 01:28:11;;;;;;;;;;;;;;;25.79;7.15;101298.50;5093697;28;20012;-75
2022/04/28 01:30:37;;;;;;;;;;;;;;;25.76;7.26;101299.84;5093658;28;20248;-75
2022/04/28 01:33:02;;;;;;;;;;;;;;;25.77;7.24;101296.03;5093647;28;19916;-74
2022/04/28 01:35:28;;;;;;;;;;;;;;;25.78;7.21;101302.31;5093556;28;20001;-74
2022/04/28 01:37:53;;;;;;;;;;;;;;;25.77;7.36;101298.75;5093306;28;20267;-74
2022/04/28 01:40:18;;;;;;;;;;;;;;;25.74;7.37;101296.53;5093524;28;20010;-75
2022/04/28 01:42:50;;;;;;;;;;;;;;;25.76;7.24;101299.03;5093494;28;20284;-74
2022/04/28 01:45:16;;;;;;;;;;;;;;;25.76;7.15;101302.56;5096284;28;19917;-73
2022/04/28 01:47:41;;;;;;;;;;;;;;;25.76;7.31;101299.03;5096860;28;19916;-74
2022/04/28 01:50:08;;;;;;;;;;;;;;;25.78;7.32;101307.78;5096748;28;19927;-74
2022/04/28 01:55:17;;;;;;;;;;;;;;;25.75;7.28;101308.31;5097345;28;19946;-76
2022/04/28 01:57:42;;;;;;;;;;;;;;;25.77;7.47;101308.91;5096586;28;20350;-73
2022/04/28 02:00:08;;;;;;;;;;;;;;;25.76;7.19;101310.78;5096503;28;19916;-75
2022/04/28 02:02:34;;;;;;;;;;;;;;;25.75;7.15;101306.41;5096621;28;19924;-75
2022/04/28 02:05:00;;;;;;;;;;;;;;;25.71;7.17;101297.06;5096656;28;19920;-76
2022/04/28 02:07:25;;;;;;;;;;;;;;;25.72;7.01;101308.88;5096325;28;19955;-74
2022/04/28 02:09:51;;;;;;;;;;;;;;;25.74;7.09;101309.41;5096581;28;19916;-73
2022/04/28 02:12:16;;;;;;;;;;;;;;;25.73;7.04;101311.31;5096657;28;19991;-74
2022/04/28 02:14:41;;;;;;;;;;;;;;;25.75;7.16;101319.25;5085030;28;19923;-74
2022/04/28 02:17:06;;;;;;;;;;;;;;;25.72;6.98;101308.88;5076360;28;19962;-75
2022/04/28 02:19:32;;;;;;;;;;;;;;;25.75;7.20;101313.78;5076244;28;19916;-73
2022/04/28 02:21:57;;;;;;;;;;;;;;;25.73;7.05;101314.06;5075999;28;20228;-74
2022/04/28 02:24:22;;;;;;;;;;;;;;;25.73;7.18;101316.78;5086610;28;20122;-74
2022/04/28 02:26:48;;;;;;;;;;;;;;;25.72;6.99;101319.81;5096326;28;20255;-75
2022/04/28 02:29:13;;;;;;;;;;;;;;;25.73;7.06;101318.72;5095996;28;20286;-73
2022/04/28 02:31:38;;;;;;;;;;;;;;;25.73;7.29;101321.44;5096226;28;19927;-72
2022/04/28 02:34:03;;;;;;;;;;;;;;;25.71;7.25;101318.16;5095897;28;19986;-74
2022/04/28 02:36:29;;;;;;;;;;;;;;;25.72;7.29;101319.81;5096168;28;19920;-76
2022/04/28 02:38:54;;;;;;;;;;;;;;;25.71;7.06;101323.63;5096142;28;20267;-74
2022/04/28 02:41:22;;;;;;;;;;;;;;;25.70;7.10;101325.56;5095741;28;20014;-74
2022/04/28 02:43:48;;;;;;;;;;;;;;;25.70;7.32;101321.97;5096910;28;20326;-75
2022/04/28 02:46:13;;;;;;;;;;;;;;;25.70;7.29;101320.09;5095775;28;19917;-74
2022/04/28 02:48:39;;;;;;;;;;;;;;;25.70;7.24;101317.34;5077979;28;19920;-73
2022/04/28 02:51:04;;;;;;;;;;;;;;;25.68;7.38;101320.34;5095632;28;20332;-74
2022/04/28 02:53:29;;;;;;;;;;;;;;;25.71;7.35;101323.63;5095560;28;19916;-75
2022/04/28 02:55:54;;;;;;;;;;;;;;;25.69;7.14;101326.63;5095578;28;19923;-74
2022/04/28 02:58:20;;;;;;;;;;;;;;;25.70;7.20;101328.28;5095801;28;19916;-73
2022/04/28 03:00:45;;;;;;;;;;;;;;;25.70;7.41;101316.50;5095462;28;20371;-74
2022/04/28 03:03:10;;;;;;;;;;;;;;;25.79;7.54;101320.41;5095737;28;20009;-74
2022/04/28 03:10:46;;;;;;;;;;;;;;;25.84;7.28;101328.63;5095414;28;19916;-75
2022/04/28 03:11:05;;;;;;;;;;;;;;;25.88;7.46;101328.91;5095824;28;19923;-74
2022/04/28 03:13:32;;;;;;;;;;;;;;;25.89;7.24;101323.19;5095281;28;20007;-74
2022/04/28 03:15:57;;;;;;;;;;;;;;;25.97;7.54;101322.66;5095618;28;19916;-76
2022/04/28 03:18:22;;;;;;;;;;;;;;;26.01;7.55;101339.41;5095696;28;20012;-74
2022/04/28 03:20:47;;;;;;;;;;;;;;;26.04;7.72;101328.75;5095195;28;19916;-74
2022/04/28 03:23:14;;;;;;;;;;;;;;;26.10;7.63;101336.97;5095030;28;19993;-75
2022/04/28 03:25:39;;;;;;;;;;;;;;;26.12;7.77;101334.78;5095064;28;19973;-75
2022/04/28 03:28:04;;;;;;;;;;;;;;;26.18;7.58;101325.47;5095452;28;19924;-74
2022/04/28 03:30:29;;;;;;;;;;;;;;;26.22;7.64;101329.34;5095148;28;20299;-73
2022/04/28 03:32:55;;;;;;;;;;;;;;;26.23;7.70;101326.34;5095274;28;19955;-74
2022/04/28 03:35:23;;;;;;;;;;;;;;;26.25;7.59;101328.81;5094929;28;20362;-74
2022/04/28 03:37:48;;;;;;;;;;;;;;;26.27;7.83;101334.84;5095089;28;19916;-73
2022/04/28 03:40:14;;;;;;;;;;;;;;;26.29;7.58;101340.84;5094676;28;20393;-74
2022/04/28 03:42:39;;;;;;;;;;;;;;;26.31;7.68;101338.66;5094972;28;19920;-74
2022/04/28 03:45:05;;;;;;;;;;;;;;;26.34;7.51;101332.66;5094858;28;19915;-75
2022/04/28 03:47:33;;;;;;;;;;;;;;;26.35;7.65;101334.28;5094717;28;19916;-74
2022/04/28 03:49:59;;;;;;;;;;;;;;;26.39;7.65;101335.41;5095056;28;19939;-73
2022/04/28 03:52:24;;;;;;;;;;;;;;;26.40;7.59;101339.78;5094598;28;20362;-74
2022/04/28 03:54:49;;;;;;;;;;;;;;;26.42;7.83;101334.88;5094473;28;20422;-76
2022/04/28 03:57:14;;;;;;;;;;;;;;;26.45;7.82;101338.16;5094692;28;19916;-74
2022/04/28 03:59:40;;;;;;;;;;;;;;;26.45;7.80;101338.16;5094790;28;20358;-74
2022/04/28 04:02:05;;;;;;;;;;;;;;;26.47;7.80;101333.22;5094618;28;19916;-73
2022/04/28 04:04:30;;;;;;;;;;;;;;;26.52;7.86;101335.97;5094327;28;19916;-74
2022/04/28 04:06:55;;;;;;;;;;;;;;;26.52;7.80;101333.22;5093629;28;20359;-75
2022/04/28 04:09:21;;;;;;;;;;;;;;;26.53;7.62;101340.38;5094597;28;19923;-73
2022/04/28 04:11:46;;;;;;;;;;;;;;;26.55;7.81;101340.91;5094341;28;20370;-74
2022/04/28 04:14:11;;;;;;;;;;;;;;;26.57;7.99;101346.94;5094019;28;19916;-74
2022/04/28 04:16:37;;;;;;;;;;;;;;;26.59;7.72;101344.75;5094030;28;19916;-75
2022/04/28 04:19:02;;;;;;;;;;;;;;;26.61;7.96;101354.34;5094149;28;20046;-73
2022/04/28 04:21:27;;;;;;;;;;;;;;;26.62;8.10;101355.19;5094300;28;19923;-74
2022/04/28 04:23:53;;;;;;;;;;;;;;;26.62;8.04;101346.97;5093595;28;20375;-73
2022/04/28 04:26:18;;;;;;;;;;;;;;;26.61;8.03;101346.13;5093872;28;19999;-74
2022/04/28 04:28:45;;;;;;;;;;;;;;;26.64;7.92;101353.00;5092993;28;20548;-74
2022/04/28 04:33:54;;;;;;;;;;;;;;;26.66;7.94;101352.75;5093932;28;20329;-73
2022/04/28 04:36:20;;;;;;;;;;;;;;;26.66;8.03;101356.28;5093831;28;19916;-75
2022/04/28 04:38:45;;;;;;;;;;;;;;;26.68;8.03;101348.66;5094425;28;19916;-74
2022/04/28 04:41:11;;;;;;;;;;;;;;;26.72;7.78;101360.69;5094031;28;19978;-73
2022/04/28 04:43:37;;;;;;;;;;;;;;;26.72;7.87;101355.22;5094343;28;19920;-74
2022/04/28 04:46:02;;;;;;;;;;;;;;;26.73;8.00;101356.88;5094083;28;20274;-74
2022/04/28 04:48:28;;;;;;;;;;;;;;;25.88;9.01;101357.13;5093859;28;19924;-73
2022/04/28 04:50:54;;;;;;;;;;;;;;;25.20;9.18;101356.94;5094059;28;20278;-74
2022/04/28 04:53:20;;;;;;;;;;;;;;;24.99;9.56;101355.97;5094008;28;19920;-73
2022/04/28 04:55:45;;;;;;;;;;;;;;;24.97;9.67;101356.22;5093917;28;19923;-73
2022/04/28 04:58:10;;;;;;;;;;;;;;;25.00;9.80;101357.63;5094057;28;20035;-74
2022/04/28 05:00:35;;;;;;;;;;;;;;;25.93;9.13;101359.06;5093914;28;20350;-76
2022/04/28 05:03:01;;;;;;;;;;;;;;;26.43;8.56;101358.41;5094124;28;19924;-74
2022/04/28 05:05:26;;;;;;;;;;;;;;;26.67;8.51;101362.63;5093852;28;20354;-73
2022/04/28 05:07:51;;;;;;;;;;;;;;;26.81;8.68;101360.97;5093915;28;20390;-74
2022/04/28 05:10:17;;;;;;;;;;;;;;;26.93;8.45;101356.03;5093664;28;19916;-75
2022/04/28 05:12:42;;;;;;;;;;;;;;;26.96;8.32;101357.44;5094194;28;19963;-74
2022/04/28 05:15:07;;;;;;;;;;;;;;;26.36;8.71;101357.88;5105885;28;19916;-73
2022/04/28 05:17:36;;;;;;;;;;;;;;;25.58;9.00;101357.81;5114131;28;19968;-73
2022/04/28 05:20:01;;;;;;;;;;;;;;;25.42;9.15;101356.84;5118004;28;19920;-72
2022/04/28 05:22:27;;;;;;;;;;;;;;;25.40;9.40;101364.50;5118802;28;20260;-74
2022/04/28 05:24:52;;;;;;;;;;;;;;;25.54;9.21;101362.94;5117986;28;19989;-74
2022/04/28 05:27:17;;;;;;;;;;;;;;;25.73;8.90;101351.56;5117602;28;20153;-75
2022/04/28 05:29:42;;;;;;;;;;;;;;;25.85;9.07;101355.75;5117815;28;19916;-76
2022/04/28 05:32:08;;;;;;;;;;;;;;;25.92;8.83;101354.66;5117593;28;20409;-73
2022/04/28 05:34:33;;;;;;;;;;;;;;;25.93;8.73;101348.91;5117538;28;19915;-73
2022/04/28 05:36:58;;;;;;;;;;;;;;;26.05;8.61;101352.28;5117768;28;19923;-75
2022/04/28 05:39:23;;;;;;;;;;;;;;;26.11;8.71;101344.09;5117366;28;20369;-74
2022/04/28 05:41:49;;;;;;;;;;;;;;;26.24;8.67;101349.06;5117890;28;19966;-75
2022/04/28 05:46:58;;;;;;;;;;;;;;;26.39;8.70;101345.56;5117320;28;20372;-74
2022/04/28 05:49:23;;;;;;;;;;;;;;;26.56;8.70;101340.66;5117325;28;19916;-75
2022/04/28 05:51:49;;;;;;;;;;;;;;;26.64;8.36;101333.81;5118369;28;19919;-75
2022/04/28 05:54:14;;;;;;;;;;;;;;;26.71;8.43;101342.59;5117430;28;20318;-77
2022/04/28 05:56:41;;;;;;;;;;;;;;;26.77;8.47;101336.03;5117295;28;19926;-75
2022/04/28 05:59:07;;;;;;;;;;;;;;;26.87;8.23;101323.41;5116918;28;19916;-75
2022/04/28 06:01:32;;;;;;;;;;;;;;;27.03;7.80;101327.78;5117112;28;20366;-75
2022/04/28 06:03:57;;;;;;;;;;;;;;;26.96;7.84;101327.25;5116955;28;20033;-75
2022/04/28 06:06:23;;;;;;;;;;;;;;;27.37;7.78;101332.69;5116916;28;19959;-76
2022/04/28 06:08:48;;;;;;;;;;;;;;;27.81;7.65;101321.03;5116609;28;20000;-74
2022/04/28 06:11:13;;;;;;;;;;;;;;;28.00;7.54;101325.94;5116475;28;19923;-75
2022/04/28 06:13:39;;;;;;;;;;;;;;;28.12;7.45;101329.16;5116336;28;19926;-75
2022/04/28 06:16:04;;;;;;;;;;;;;;;28.20;7.38;101330.47;5116610;28;19915;-74
2022/04/28 06:18:29;;;;;;;;;;;;;;;28.25;7.42;101330.44;5116855;28;19967;-74
2022/04/28 06:20:55;;;;;;;;;;;;;;;28.33;7.16;101327.09;5116141;28;19916;-75
2022/04/28 06:23:20;;;;;;;;;;;;;;;28.29;7.47;101329.59;5116391;28;19916;-75
2022/04/28 06:25:45;;;;;;;;;;;;;;;28.34;7.22;101328.75;5116416;28;19934;-75
2022/04/28 06:28:11;;;;;;;;;;;;;;;28.38;7.23;101323.50;5116441;28;20346;-74
2022/04/28 06:30:36;;;;;;;;;;;;;;;28.26;7.30;101316.44;5115396;28;19916;-74
2022/04/28 06:33:02;;;;;;;;;;;;;;;28.36;7.26;101321.06;5116052;28;20422;-74
2022/04/28 06:35:27;;;;;;;;;;;;;;;28.36;7.17;101320.25;5116010;28;20374;-73
2022/04/28 06:37:53;;;;;;;;;;;;;;;28.37;7.21;101316.38;5116071;28;19930;-74
2022/04/28 06:40:18;;;;;;;;;;;;;;;28.33;7.27;101320.81;5115695;28;20315;-73
2022/04/28 06:42:50;;;;;;;;;;;;;;;28.27;7.26;101326.31;5115808;28;19962;-77
2022/04/28 06:45:15;;;;;;;;;;;;;;;28.27;7.04;101323.56;5116066;28;19920;-74
2022/04/28 06:47:40;;;;;;;;;;;;;;;28.27;7.14;101318.09;5097924;28;19923;-75
2022/04/28 06:50:06;;;;;;;;;;;;;;;28.27;7.09;101329.06;5116499;28;20292;-74
2022/04/28 06:52:31;;;;;;;;;;;;;;;28.27;6.92;101334.56;5116347;28;20295;-75
2022/04/28 06:54:56;;;;;;;;;;;;;;;28.32;6.88;101330.13;5115940;28;19961;-73
2022/04/28 06:57:21;;;;;;;;;;;;;;;28.31;6.70;101334.81;5115955;28;20073;-74
2022/04/28 06:59:47;;;;;;;;;;;;;;;28.24;6.83;101332.38;5115737;28;19923;-72
2022/04/28 07:02:12;;;;;;;;;;;;;;;28.32;6.69;101332.88;5115380;28;20392;-73
2022/04/28 07:04:38;;;;;;;;;;;;;;;28.35;6.59;101333.13;5115407;28;20116;-74
2022/04/28 07:07:03;;;;;;;;;;;;;;;28.32;6.61;101333.72;5097457;28;19916;-74
2022/04/28 07:09:28;;;;;;;;;;;;;;;28.33;6.59;101337.28;5097091;28;20015;-74
2022/04/28 07:11:54;;;;;;;;;;;;;;;28.32;6.82;101333.72;5115588;28;19916;-74
2022/04/28 07:14:19;;;;;;;;;;;;;;;28.31;6.76;101337.56;5112516;28;19920;-74
2022/04/28 07:16:45;;;;;;;;;;;;;;;28.33;6.53;101337.28;5095213;28;19922;-76
2022/04/28 07:19:10;;;;;;;;;;;;;;;28.28;6.68;101336.19;5094989;28;19939;-74
2022/04/28 07:21:35;;;;;;;;;;;;;;;28.29;6.47;101337.03;5094636;28;19916;-74
2022/04/28 07:24:01;;;;;;;;;;;;;;;28.33;6.72;101340.03;5094857;28;19966;-74
2022/04/28 07:26:26;;;;;;;;;;;;;;;28.29;6.76;101332.34;5095338;28;19920;-73
2022/04/28 07:28:51;;;;;;;;;;;;;;;28.26;6.70;101321.94;5076743;28;19923;-73
2022/04/28 07:31:16;;;;;;;;;;;;;;;28.34;6.58;101328.75;5094790;28;20355;-73
2022/04/28 07:33:42;;;;;;;;;;;;;;;28.37;6.69;101332.84;5094949;28;19916;-73
2022/04/28 07:36:07;;;;;;;;;;;;;;;28.39;6.60;101331.47;5094985;28;20378;-73
2022/04/28 07:38:33;;;;;;;;;;;;;;;28.34;6.65;101319.69;5095064;28;20273;-75
2022/04/28 07:41:00;;;;;;;;;;;;;;;28.38;6.65;101320.78;5076554;28;19923;-75
2022/04/28 07:43:25;;;;;;;;;;;;;;;28.40;6.78;101321.28;5095302;28;20027;-74
2022/04/28 07:45:50;;;;;;;;;;;;;;;28.37;6.67;101310.88;5094533;28;20406;-75
2022/04/28 07:48:16;;;;;;;;;;;;;;;28.39;6.83;101308.66;5094171;28;20363;-74
2022/04/28 07:50:41;;;;;;;;;;;;;;;27.25;7.32;101307.44;5094525;28;19920;-74
2022/04/28 07:53:06;;;;;;;;;;;;;;;26.91;7.34;101308.06;5077277;28;20367;-74
2022/04/28 07:55:31;;;;;;;;;;;;;;;26.73;7.56;101306.69;5098311;28;19916;-73
2022/04/28 07:57:57;;;;;;;;;;;;;;;26.68;7.43;101302.03;5094198;28;20273;-74
2022/04/28 08:00:22;;;;;;;;;;;;;;;26.69;7.41;101294.63;5094547;28;19916;-74
2022/04/28 08:02:47;;;;;;;;;;;;;;;26.86;7.38;101292.41;5094244;28;20402;-73
2022/04/28 08:05:12;;;;;;;;;;;;;;;26.74;7.20;101281.72;5094271;28;19923;-75
2022/04/28 08:07:38;;;;;;;;;;;;;;;26.81;7.36;101291.59;5094155;28;20416;-75
2022/04/28 08:10:06;;;;;;;;;;;;;;;27.50;7.18;101288.19;5094170;28;19916;-75
2022/04/28 08:12:32;;;;;;;;;;;;;;;27.84;7.11;101292.19;5094144;28;19928;-75
2022/04/28 08:14:57;;;;;;;;;;;;;;;28.04;7.03;101291.28;5101119;28;19916;-75
2022/04/28 08:17:22;;;;;;;;;;;;;;;28.14;6.78;101273.94;5114672;28;20007;-74
2022/04/28 08:19:48;;;;;;;;;;;;;;;28.21;6.85;101274.41;5114046;28;19915;-74
2022/04/28 08:22:13;;;;;;;;;;;;;;;28.20;6.75;101268.13;5114172;28;19923;-73
2022/04/28 08:24:38;;;;;;;;;;;;;;;28.32;6.61;101264.16;5114286;28;19919;-74
2022/04/28 08:27:04;;;;;;;;;;;;;;;28.28;6.73;101267.47;5113661;28;19920;-74
2022/04/28 08:29:29;;;;;;;;;;;;;;;28.26;6.63;101266.97;5113855;28;19972;-74
2022/04/28 08:31:54;;;;;;;;;;;;;;;28.24;6.58;101265.63;5113894;28;19915;-74
2022/04/28 08:34:21;;;;;;;;;;;;;;;28.27;6.52;101268.59;5114242;28;19923;-75
2022/04/28 08:36:47;;;;;;;;;;;;;;;28.26;6.50;101271.63;5095699;28;19916;-74
2022/04/28 08:39:12;;;;;;;;;;;;;;;28.26;6.47;101272.44;5113631;28;20015;-74
2022/04/28 08:41:42;;;;;;;;;;;;;;;28.26;6.65;101274.38;5114089;28;19955;-74
2022/04/28 08:44:07;;;;;;;;;;;;;;;28.24;6.62;101274.66;5113713;28;19959;-75
2022/04/28 08:46:50;;;;;;;;;;;;;;;28.24;6.60;101280.16;5095508;28;19958;-73
2022/04/28 08:49:18;;;;;;;;;;;;;;;28.19;6.61;101273.91;5114048;28;19916;-75
2022/04/28 08:51:43;;;;;;;;;;;;;;;28.15;6.79;101267.31;5113553;28;20014;-75
2022/04/28 08:54:09;;;;;;;;;;;;;;;28.20;6.58;101262.63;5117253;28;20000;-74
2022/04/28 08:56:34;;;;;;;;;;;;;;;28.11;6.83;101269.81;5119109;28;19916;-74
2022/04/28 08:59:00;;;;;;;;;;;;;;;28.13;6.74;101262.13;5118157;28;20386;-74
2022/04/28 09:01:27;;;;;;;;;;;;;;;28.06;6.81;101256.94;5117839;28;19916;-74
2022/04/28 09:03:52;;;;;;;;;;;;;;;28.05;6.76;101262.72;5118222;28;19915;-76
2022/04/28 09:06:22;;;;;;;;;;;;;;;27.49;6.76;101264.63;5099725;28;20416;-75
2022/04/28 09:08:48;;;;;;;;;;;;;;;26.40;7.27;101254.81;5118301;28;20061;-74
2022/04/28 09:11:17;;;;;;;;;;;;;;;26.15;7.35;101268.50;5118252;28;20390;-73
2022/04/28 09:16:27;;;;;;;;;;;;;;;26.08;7.48;101255.06;5099206;28;19923;-74
2022/04/28 09:18:53;;;;;;;;;;;;;;;26.18;7.24;101255.09;5097096;28;20378;-74
2022/04/28 09:21:19;;;;;;;;;;;;;;;26.01;7.32;101258.06;5097595;28;19924;-75
2022/04/28 09:23:44;;;;;;;;;;;;;;;26.42;7.25;101249.91;5098110;28;20065;-75
2022/04/28 09:26:10;;;;;;;;;;;;;;;26.45;7.33;101239.50;5097336;28;20033;-74
2022/04/28 09:28:36;;;;;;;;;;;;;;;26.31;7.79;101239.22;5097748;28;19962;-75
2022/04/28 09:31:01;;;;;;;;;;;;;;;26.74;7.83;101237.84;5097179;28;19919;-75
2022/04/28 09:33:26;;;;;;;;;;;;;;;26.90;7.52;101226.88;5097327;28;20358;-74
2022/04/28 09:35:52;;;;;;;;;;;;;;;27.39;7.47;101231.72;5078881;28;19916;-75
2022/04/28 09:38:17;;;;;;;;;;;;;;;27.62;7.56;101223.94;5096954;28;19951;-74
2022/04/28 09:43:27;;;;;;;;;;;;;;;27.82;8.02;101222.97;5096814;28;19927;-75
2022/04/28 09:45:53;;;;;;;;;;;;;;;27.71;7.50;101234.00;5097731;28;19916;-75
2022/04/28 09:48:19;;;;;;;;;;;;;;;27.96;7.16;101224.03;5079960;28;19980;-75
2022/04/28 09:50:44;;;;;;;;;;;;;;;27.99;7.04;101222.63;5097954;28;20417;-74
2022/04/28 09:53:09;;;;;;;;;;;;;;;28.02;6.86;101227.56;5078582;28;20286;-73
2022/04/28 09:55:35;;;;;;;;;;;;;;;27.96;7.08;101224.03;5098051;28;19965;-75
2022/04/28 09:58:08;;;;;;;;;;;;;;;27.96;7.01;101224.03;5096757;28;20001;-73
2022/04/28 10:00:34;;;;;;;;;;;;;;;28.04;6.87;101214.34;5096415;28;20046;-73
2022/04/28 10:03:01;;;;;;;;;;;;;;;28.02;6.96;101211.88;5096811;28;19959;-75
2022/04/28 10:05:26;;;;;;;;;;;;;;;27.91;7.21;101210.31;5077185;28;19916;-75
2022/04/28 10:07:51;;;;;;;;;;;;;;;28.00;7.41;101210.53;5095972;28;19923;-75
2022/04/28 10:10:17;;;;;;;;;;;;;;;28.03;7.35;101204.50;5096261;28;19955;-76
2022/04/28 10:12:42;;;;;;;;;;;;;;;28.02;7.16;101200.09;5096293;28;19958;-75
2022/04/28 10:15:09;;;;;;;;;;;;;;;28.01;7.23;101195.69;5078623;28;19970;-73
2022/04/28 10:17:34;;;;;;;;;;;;;;;28.02;7.23;101189.91;5096081;28;20460;-74
2022/04/28 10:20:02;;;;;;;;;;;;;;;28.01;7.16;101184.69;5096146;28;19960;-77
2022/04/28 10:22:31;;;;;;;;;;;;;;;28.00;7.24;101185.81;5095374;28;19982;-74
2022/04/28 10:33:27;;;;;;;;;;;;;;;27.93;7.50;101166.91;5019605;28;19935;-73
2022/04/28 10:35:54;;;;;;;;;;;;;;;27.95;7.55;101169.38;5033483;28;19963;-75
2022/04/28 10:38:30;;;;;;;;;;;;;;;27.94;7.61;101159.47;5018095;28;19920;-74
2022/04/28 10:41:05;;;;;;;;;;;;;;;27.96;7.48;101160.00;5017113;28;19917;-74
2022/04/28 10:43:30;;;;;;;;;;;;;;;27.86;7.58;101152.66;5033475;28;20008;-74
2022/04/28 10:45:55;;;;;;;;;;;;;;;27.88;7.56;101151.25;5033238;28;20275;-74
2022/04/28 10:48:30;;;;;;;;;;;;;;;27.88;7.36;101142.19;5033066;28;19929;-73
2022/04/28 10:50:58;;;;;;;;;;;;;;;27.86;7.41;101142.47;5033070;28;20414;-74
2022/04/28 10:53:24;;;;;;;;;;;;;;;27.91;7.61;101144.38;5033931;28;20012;-75
2022/04/28 10:55:49;;;;;;;;;;;;;;;27.83;7.36;101136.75;5034454;28;20427;-74
2022/04/28 10:58:17;;;;;;;;;;;;;;;27.88;7.51;101123.78;5035466;28;19924;-75
2022/04/28 11:00:43;;;;;;;;;;;;;;;27.86;7.50;101125.19;5033270;28;19918;-74
2022/04/28 11:03:08;;;;;;;;;;;;;;;27.87;7.64;101126.81;5016541;28;20036;-74
2022/04/28 11:05:35;;;;;;;;;;;;;;;27.89;7.67;101125.44;5032578;28;20007;-76
2022/04/28 11:08:01;;;;;;;;;;;;;;;27.84;7.64;101125.47;5069733;28;19980;-75
2022/04/28 11:10:27;;;;;;;;;;;;;;;27.77;7.52;101132.38;5075101;28;19923;-74
2022/04/28 11:12:52;;;;;;;;;;;;;;;27.83;7.62;101121.06;5075151;28;19920;-73
2022/04/28 11:15:18;;;;;;;;;;;;;;;27.84;7.67;101122.72;5062195;28;19923;-72
2022/04/28 11:17:44;;;;;;;;;;;;;;;27.87;7.75;101127.66;5094716;28;20231;-73
2022/04/28 11:20:20;;;;;;;;;;;;;;;27.85;7.63;101123.53;5094595;28;19916;-74
2022/04/28 11:22:50;;;;;;;;;;;;;;;27.83;7.40;101115.56;5094896;28;19932;-73
2022/04/28 11:25:16;;;;;;;;;;;;;;;27.81;7.39;101117.81;5112707;28;19924;-73
2022/04/28 11:27:41;;;;;;;;;;;;;;;27.81;7.52;101117.00;5114958;28;19982;-73
2022/04/28 11:30:09;;;;;;;;;;;;;;;27.75;7.44;101118.94;5115326;28;19916;-72
2022/04/28 11:32:35;;;;;;;;;;;;;;;27.79;7.59;101113.72;5115391;28;19923;-74
2022/04/28 11:35:01;;;;;;;;;;;;;;;27.79;7.48;101120.00;5115054;28;19916;-75
2022/04/28 11:37:26;;;;;;;;;;;;;;;27.76;7.59;101120.59;5115295;28;20388;-75
2022/04/28 11:39:55;;;;;;;;;;;;;;;27.73;7.55;101107.41;5115169;28;19916;-75
2022/04/28 11:42:21;;;;;;;;;;;;;;;27.73;7.56;101108.25;5115513;28;19923;-73
2022/04/28 11:44:53;;;;;;;;;;;;;;;27.71;7.65;101101.41;5114854;28;19915;-75
2022/04/28 11:47:19;;;;;;;;;;;;;;;27.77;7.53;101099.41;5114987;28;20255;-75
2022/04/28 11:49:44;;;;;;;;;;;;;;;27.74;7.75;101100.84;5114567;28;19920;-75
2022/04/28 11:52:19;;;;;;;;;;;;;;;27.71;7.64;101104.13;5114709;28;19919;-75
2022/04/28 11:54:44;;;;;;;;;;;;;;;27.62;7.64;101100.38;5115109;28;20355;-75
2022/04/28 11:57:10;;;;;;;;;;;;;;;27.68;7.87;101101.97;5096331;28;19919;-73
2022/04/28 11:59:36;;;;;;;;;;;;;;;27.69;7.82;101092.63;5114762;28;20350;-73
2022/04/28 12:02:02;;;;;;;;;;;;;;;27.68;7.65;101096.47;5096656;28;19950;-73
2022/04/28 12:04:27;;;;;;;;;;;;;;;27.64;7.70;101084.44;5114484;28;20002;-73
2022/04/28 12:06:52;;;;;;;;;;;;;;;27.64;8.08;101084.44;5114168;28;19915;-74
2022/04/28 12:14:45;;;;;;;;;;;;;;;27.49;8.17;101071.63;5114527;28;20401;-75
2022/04/28 12:19:55;;;;;;;;;;;;;;;27.53;8.26;101083.69;5094331;28;19923;-74
2022/04/28 12:22:28;;;;;;;;;;;;;;;27.51;8.26;101080.38;5093944;28;19916;-74
2022/04/28 12:24:53;;;;;;;;;;;;;;;27.52;8.26;101071.06;5078751;28;19924;-75
2022/04/28 12:27:18;;;;;;;;;;;;;;;27.50;8.35;101071.34;5073103;28;20314;-74
2022/04/28 12:29:52;;;;;;;;;;;;;;;27.48;8.23;101070.81;5073346;28;19923;-75
2022/04/28 12:32:17;;;;;;;;;;;;;;;27.46;8.26;101078.50;5073717;28;19963;-73
2022/04/28 12:34:43;;;;;;;;;;;;;;;27.46;8.15;101064.78;5073471;28;19917;-73
2022/04/28 12:37:08;;;;;;;;;;;;;;;27.46;8.39;101073.03;5073991;28;19924;-74
2022/04/28 12:39:53;;;;;;;;;;;;;;;27.45;8.20;101065.06;5055821;28;19967;-74
2022/04/28 12:42:19;;;;;;;;;;;;;;;27.44;8.23;101071.66;5073732;28;20343;-74
2022/04/28 12:44:44;;;;;;;;;;;;;;;27.44;8.30;101068.91;5073478;28;19920;-74
2022/04/28 12:47:10;;;;;;;;;;;;;;;27.44;8.34;101063.41;5073523;28;19962;-73
2022/04/28 12:49:45;;;;;;;;;;;;;;;27.42;8.45;101055.47;5073275;28;20267;-73
2022/04/28 12:52:10;;;;;;;;;;;;;;;27.41;8.36;101059.31;5073708;28;20022;-73
2022/04/28 12:54:36;;;;;;;;;;;;;;;27.36;8.50;101064.84;5073018;28;20028;-75
2022/04/28 12:57:03;;;;;;;;;;;;;;;27.31;8.42;101054.72;5073591;28;19916;-75
2022/04/28 12:59:31;;;;;;;;;;;;;;;27.29;8.68;101056.13;5073466;28;19920;-74
2022/04/28 13:01:57;;;;;;;;;;;;;;;27.27;8.60;101055.53;5073555;28;19916;-74
2022/04/28 13:04:23;;;;;;;;;;;;;;;27.26;8.80;101056.66;5055394;28;19916;-74
2022/04/28 13:06:49;;;;;;;;;;;;;;;27.23;8.80;101051.72;5073329;28;19917;-73
2022/04/28 13:09:15;;;;;;;;;;;;;;;27.22;9.05;101044.63;5073509;28;19916;-74
2022/04/28 13:11:41;;;;;;;;;;;;;;;27.22;9.02;101048.16;5073055;28;20386;-74
2022/04/28 13:14:08;;;;;;;;;;;;;;;27.18;9.07;101052.56;5073462;28;20045;-73
2022/04/28 13:16:34;;;;;;;;;;;;;;;27.17;9.32;101049.00;5086996;28;19916;-76